WetterOnline ( http://www.wetteronline.de )

Wetter aktuell Frankenberg

Aktuelles Wetter: Kahler Asten (841m)

6-stündlich | Neueste Meldungen
Ortszeit Temperatur Wetter
Di, 30.05. 8:00 16.6° C leicht bewölkt
Di, 30.05. 2:00 19.7° C wolkenlos
Mo, 29.05. 20:00 25.1° C wolkenlos
Mo, 29.05. 14:00 26.3° C wolkenlos
Ortszeit Temperatur Wetter
Di, 30.05. 11:00 19.8° C wolkig
Di, 30.05. 10:30 19.3° C wolkig
Di, 30.05. 10:00 19.3° C leicht bewölkt
Di, 30.05. 9:30 18.0° C leicht bewölkt
Di, 30.05. 9:00 17.3° C leicht bewölkt
Di, 30.05. 8:30 16.9° C leicht bewölkt
Ortszeit Relative Feuchte Sichtweite
Di, 30.05. 8:00 94% 10 km
Di, 30.05. 2:00 61% 45 km
Mo, 29.05. 20:00 43% 50 km
Mo, 29.05. 14:00 44% 40 km
Ortszeit Relative Feuchte Sichtweite
Di, 30.05. 11:00 72% 10 km
Di, 30.05. 10:30 74% 10 km
Di, 30.05. 10:00 78% 9 km
Di, 30.05. 9:30 85% 9 km
Di, 30.05. 9:00 88% 9 km
Di, 30.05. 8:30 91% 10 km
Ortszeit Niederschlagsmenge Niederschlagsart
Di, 30.05. 8:00 0,0 l/m2 in 12 Std. -
Di, 30.05. 2:00 0,0 l/m2 in 6 Std. -
Mo, 29.05. 20:00 0,0 l/m2 in 12 Std. -
Mo, 29.05. 14:00 0,0 l/m2 in 6 Std. -
Ortszeit Niederschlagsmenge Niederschlagsart
Di, 30.05. 11:00 0,0 l/m2 in 1 Std. -
Di, 30.05. 10:30 keine Meldung -
Di, 30.05. 10:00 0,0 l/m2 in 1 Std. -
Di, 30.05. 9:30 keine Meldung -
Di, 30.05. 9:00 0,0 l/m2 in 1 Std. -
Di, 30.05. 8:30 keine Meldung -
Ortszeit Stärke Spitze Richtung
km/h Bft. km/h Grad Sektor
Di, 30.05. 8:00 14 3 29 280° W
Di, 30.05. 2:00 18 3 32 270° W
Mo, 29.05. 20:00 22 4 47 220° SW
Mo, 29.05. 14:00 22 4 35 180° S
Ortszeit Stärke Spitze Richtung
km/h Bft. km/h Grad Sektor
Di, 30.05. 11:00 17 3 26 260° W
Di, 30.05. 10:30 13 3 26 270° W
Di, 30.05. 10:00 18 3 25 260° W
Di, 30.05. 9:30 13 3 20 260° W
Di, 30.05. 9:00 14 3 22 270° W
Di, 30.05. 8:30 13 3 19 270° W
Ortszeit Untergrenze Bedeckung Gattung
total tief tief mittel hoch
Di, 30.05. 8:00 3900 m 6/8 3/8 - Ac Ci
Di, 30.05. 2:00 - 0/8 0/8 - - -
Mo, 29.05. 20:00 - 0/8 0/8 - - -
Mo, 29.05. 14:00 - 0/8 0/8 - - -
Ortszeit Bedeckungsgrad in Achtel und Wolkenuntergrenze
Di, 30.05. 11:00 3(900m) 6(9000m)
Di, 30.05. 10:30 4(900m) 6(9000m)
Di, 30.05. 10:00 2(600m) 6(9000m)
Di, 30.05. 9:30 1(600m) 6(9000m)
Di, 30.05. 9:00 2(390m) 3(3900m) 6(9000m)
Di, 30.05. 8:30 2(390m) 3(3900m) 6(9000m)
Ortszeit Stationsdruck (hPa) Tendenz (hPa in 3 Std.)
Di, 30.05. 8:00 917 + 0,7
Di, 30.05. 2:00 916 - 0,4
Mo, 29.05. 20:00 917 - 0,3
Mo, 29.05. 14:00 918 - 0,8
Ortszeit Stationsdruck (hPa) Tendenz (hPa in 3 Std.)
Di, 30.05. 11:00 917 + 0,7
Di, 30.05. 10:30 917 + 0,9
Di, 30.05. 10:00 917 + 1,2
Di, 30.05. 9:30 917 + 1,0
Di, 30.05. 9:00 917 + 0,9
Di, 30.05. 8:30 917 + 1,0
Ortszeit Schneehöhe (cm)
Di, 30.05. 8:00 0
Di, 30.05. 2:00 -
Mo, 29.05. 20:00 -
Mo, 29.05. 14:00 -
Ortszeit Schneehöhe (cm)
Di, 30.05. 11:00 -
Di, 30.05. 10:30 -
Di, 30.05. 10:00 -
Di, 30.05. 9:30 -
Di, 30.05. 9:00 -
Di, 30.05. 8:30 -
Link zu dieser Seite / Seite empfehlen

Das Wetter in ...